sensor_id;sensor_type;location;lat;lon;timestamp;temperature;humidity
70300;HTU21D;57704;51.112;5.878;2023-02-26T00:00:59;3.01;62.65
70300;HTU21D;57704;51.112;5.878;2023-02-26T00:03:26;3.00;62.71
70300;HTU21D;57704;51.112;5.878;2023-02-26T00:05:52;2.99;62.70
70300;HTU21D;57704;51.112;5.878;2023-02-26T00:08:18;2.97;62.79
70300;HTU21D;57704;51.112;5.878;2023-02-26T00:10:44;2.95;62.82
70300;HTU21D;57704;51.112;5.878;2023-02-26T00:13:10;2.93;62.88
70300;HTU21D;57704;51.112;5.878;2023-02-26T00:15:37;2.89;63.14
70300;HTU21D;57704;51.112;5.878;2023-02-26T00:18:06;2.85;63.25
70300;HTU21D;57704;51.112;5.878;2023-02-26T00:20:34;2.84;63.27
70300;HTU21D;57704;51.112;5.878;2023-02-26T00:23:01;2.83;63.31
70300;HTU21D;57704;51.112;5.878;2023-02-26T00:25:27;2.82;63.44
70300;HTU21D;57704;51.112;5.878;2023-02-26T00:27:53;2.82;63.57
70300;HTU21D;57704;51.112;5.878;2023-02-26T00:30:20;2.85;63.53
70300;HTU21D;57704;51.112;5.878;2023-02-26T00:32:46;2.84;63.53
70300;HTU21D;57704;51.112;5.878;2023-02-26T00:35:15;2.85;63.49
70300;HTU21D;57704;51.112;5.878;2023-02-26T00:43:22;2.75;63.64
70300;HTU21D;57704;51.112;5.878;2023-02-26T00:46:31;2.73;63.62
70300;HTU21D;57704;51.112;5.878;2023-02-26T00:49:25;2.67;63.72
70300;HTU21D;57704;51.112;5.878;2023-02-26T00:51:58;2.64;63.86
70300;HTU21D;57704;51.112;5.878;2023-02-26T00:54:29;2.61;63.96
70300;HTU21D;57704;51.112;5.878;2023-02-26T00:56:57;2.59;64.07
70300;HTU21D;57704;51.112;5.878;2023-02-26T00:59:24;2.57;64.09
70300;HTU21D;57704;51.112;5.878;2023-02-26T01:01:51;2.55;64.15
70300;HTU21D;57704;51.112;5.878;2023-02-26T01:04:21;2.54;64.20
70300;HTU21D;57704;51.112;5.878;2023-02-26T01:06:51;2.52;64.28
70300;HTU21D;57704;51.112;5.878;2023-02-26T01:09:36;2.54;64.55
70300;HTU21D;57704;51.112;5.878;2023-02-26T01:12:06;2.51;64.72
70300;HTU21D;57704;51.112;5.878;2023-02-26T01:14:33;2.54;64.81
70300;HTU21D;57704;51.112;5.878;2023-02-26T01:20:01;2.68;65.02
70300;HTU21D;57704;51.112;5.878;2023-02-26T01:22:43;2.76;65.01
70300;HTU21D;57704;51.112;5.878;2023-02-26T01:25:15;2.82;65.01
70300;HTU21D;57704;51.112;5.878;2023-02-26T01:27:43;2.91;64.97
70300;HTU21D;57704;51.112;5.878;2023-02-26T01:30:09;2.93;64.82
70300;HTU21D;57704;51.112;5.878;2023-02-26T01:35:41;2.87;64.81
70300;HTU21D;57704;51.112;5.878;2023-02-26T01:38:34;2.80;65.00
70300;HTU21D;57704;51.112;5.878;2023-02-26T01:43:50;2.79;65.32
70300;HTU21D;57704;51.112;5.878;2023-02-26T01:46:36;2.81;65.50
70300;HTU21D;57704;51.112;5.878;2023-02-26T01:49:12;2.81;65.62
70300;HTU21D;57704;51.112;5.878;2023-02-26T01:51:56;2.83;65.73
70300;HTU21D;57704;51.112;5.878;2023-02-26T01:54:27;2.88;65.78
70300;HTU21D;57704;51.112;5.878;2023-02-26T01:57:16;2.90;65.74
70300;HTU21D;57704;51.112;5.878;2023-02-26T01:59:47;2.95;65.74
70300;HTU21D;57704;51.112;5.878;2023-02-26T02:02:21;2.94;65.75
70300;HTU21D;57704;51.112;5.878;2023-02-26T02:04:49;2.94;65.78
70300;HTU21D;57704;51.112;5.878;2023-02-26T02:07:16;2.93;65.82
70300;HTU21D;57704;51.112;5.878;2023-02-26T02:09:45;3.02;65.76
70300;HTU21D;57704;51.112;5.878;2023-02-26T02:12:33;2.94;65.72
70300;HTU21D;57704;51.112;5.878;2023-02-26T02:15:09;2.93;65.91
70300;HTU21D;57704;51.112;5.878;2023-02-26T02:18:02;2.94;65.86
70300;HTU21D;57704;51.112;5.878;2023-02-26T02:23:29;2.93;65.82
70300;HTU21D;57704;51.112;5.878;2023-02-26T02:28:36;2.88;65.88
70300;HTU21D;57704;51.112;5.878;2023-02-26T02:31:17;2.87;65.82
70300;HTU21D;57704;51.112;5.878;2023-02-26T02:34:01;2.83;65.86
70300;HTU21D;57704;51.112;5.878;2023-02-26T02:39:43;2.71;65.83
70300;HTU21D;57704;51.112;5.878;2023-02-26T02:44:48;2.57;66.06
70300;HTU21D;57704;51.112;5.878;2023-02-26T02:47:19;2.54;65.98
70300;HTU21D;57704;51.112;5.878;2023-02-26T02:49:58;2.49;66.13
70300;HTU21D;57704;51.112;5.878;2023-02-26T02:52:49;2.42;66.17
70300;HTU21D;57704;51.112;5.878;2023-02-26T02:55:26;2.41;66.23
70300;HTU21D;57704;51.112;5.878;2023-02-26T02:58:21;2.32;66.36
70300;HTU21D;57704;51.112;5.878;2023-02-26T03:00:54;2.35;66.43
70300;HTU21D;57704;51.112;5.878;2023-02-26T03:03:32;2.36;66.49
70300;HTU21D;57704;51.112;5.878;2023-02-26T03:06:00;2.31;66.47
70300;HTU21D;57704;51.112;5.878;2023-02-26T03:08:30;2.31;66.60
70300;HTU21D;57704;51.112;5.878;2023-02-26T03:10:57;2.29;66.65
70300;HTU21D;57704;51.112;5.878;2023-02-26T03:13:25;2.30;66.74
70300;HTU21D;57704;51.112;5.878;2023-02-26T03:24:15;2.13;67.20
70300;HTU21D;57704;51.112;5.878;2023-02-26T03:29:34;2.11;67.46
70300;HTU21D;57704;51.112;5.878;2023-02-26T03:32:23;2.07;67.55
70300;HTU21D;57704;51.112;5.878;2023-02-26T03:35:03;2.08;67.68
70300;HTU21D;57704;51.112;5.878;2023-02-26T03:37:47;2.00;67.83
70300;HTU21D;57704;51.112;5.878;2023-02-26T03:40:48;1.98;68.01
70300;HTU21D;57704;51.112;5.878;2023-02-26T03:43:27;2.00;68.01
70300;HTU21D;57704;51.112;5.878;2023-02-26T03:46:02;1.98;67.99
70300;HTU21D;57704;51.112;5.878;2023-02-26T03:48:33;1.95;68.07
70300;HTU21D;57704;51.112;5.878;2023-02-26T03:51:09;1.92;68.21
70300;HTU21D;57704;51.112;5.878;2023-02-26T03:54:07;1.93;68.25
70300;HTU21D;57704;51.112;5.878;2023-02-26T03:56:44;1.91;68.26
70300;HTU21D;57704;51.112;5.878;2023-02-26T03:59:31;1.92;68.38
70300;HTU21D;57704;51.112;5.878;2023-02-26T04:02:19;1.86;68.36
70300;HTU21D;57704;51.112;5.878;2023-02-26T04:04:54;1.85;68.58
70300;HTU21D;57704;51.112;5.878;2023-02-26T04:07:22;1.83;68.61
70300;HTU21D;57704;51.112;5.878;2023-02-26T04:09:50;1.79;68.81
70300;HTU21D;57704;51.112;5.878;2023-02-26T04:12:25;1.80;68.86
70300;HTU21D;57704;51.112;5.878;2023-02-26T04:14:54;1.80;68.90
70300;HTU21D;57704;51.112;5.878;2023-02-26T04:17:20;1.76;69.00
70300;HTU21D;57704;51.112;5.878;2023-02-26T04:19:46;1.71;69.07
70300;HTU21D;57704;51.112;5.878;2023-02-26T04:22:12;1.71;69.19
70300;HTU21D;57704;51.112;5.878;2023-02-26T04:24:38;1.69;69.20
70300;HTU21D;57704;51.112;5.878;2023-02-26T04:27:04;1.68;69.17
70300;HTU21D;57704;51.112;5.878;2023-02-26T04:29:32;1.65;69.31
70300;HTU21D;57704;51.112;5.878;2023-02-26T04:31:58;1.60;69.49
70300;HTU21D;57704;51.112;5.878;2023-02-26T04:34:25;1.53;69.55
70300;HTU21D;57704;51.112;5.878;2023-02-26T04:36:52;1.52;69.75
70300;HTU21D;57704;51.112;5.878;2023-02-26T04:39:19;1.50;69.71
70300;HTU21D;57704;51.112;5.878;2023-02-26T04:41:45;1.48;69.85
70300;HTU21D;57704;51.112;5.878;2023-02-26T04:44:11;1.42;70.03
70300;HTU21D;57704;51.112;5.878;2023-02-26T04:46:40;1.42;70.10
70300;HTU21D;57704;51.112;5.878;2023-02-26T04:49:06;1.42;69.99
70300;HTU21D;57704;51.112;5.878;2023-02-26T04:51:32;1.45;69.93
70300;HTU21D;57704;51.112;5.878;2023-02-26T04:53:58;1.46;69.87
70300;HTU21D;57704;51.112;5.878;2023-02-26T04:56:25;1.42;69.81
70300;HTU21D;57704;51.112;5.878;2023-02-26T04:58:50;1.39;69.81
70300;HTU21D;57704;51.112;5.878;2023-02-26T05:01:22;1.43;69.87
70300;HTU21D;57704;51.112;5.878;2023-02-26T05:03:51;1.40;69.78
70300;HTU21D;57704;51.112;5.878;2023-02-26T05:06:17;1.40;69.75
70300;HTU21D;57704;51.112;5.878;2023-02-26T05:08:43;1.42;69.65
70300;HTU21D;57704;51.112;5.878;2023-02-26T05:11:10;1.40;69.55
70300;HTU21D;57704;51.112;5.878;2023-02-26T05:13:37;1.39;69.56
70300;HTU21D;57704;51.112;5.878;2023-02-26T05:16:04;1.36;69.51
70300;HTU21D;57704;51.112;5.878;2023-02-26T05:18:30;1.37;69.54
70300;HTU21D;57704;51.112;5.878;2023-02-26T05:20:57;1.35;69.44
70300;HTU21D;57704;51.112;5.878;2023-02-26T05:23:23;1.28;69.39
70300;HTU21D;57704;51.112;5.878;2023-02-26T05:25:49;1.25;69.43
70300;HTU21D;57704;51.112;5.878;2023-02-26T05:28:16;1.23;69.52
70300;HTU21D;57704;51.112;5.878;2023-02-26T05:30:42;1.23;69.48
70300;HTU21D;57704;51.112;5.878;2023-02-26T05:33:08;1.25;69.25
70300;HTU21D;57704;51.112;5.878;2023-02-26T05:35:34;1.19;69.31
70300;HTU21D;57704;51.112;5.878;2023-02-26T05:37:59;1.16;69.42
70300;HTU21D;57704;51.112;5.878;2023-02-26T05:40:25;1.16;69.39
70300;HTU21D;57704;51.112;5.878;2023-02-26T05:42:52;1.13;69.42
70300;HTU21D;57704;51.112;5.878;2023-02-26T05:45:18;1.09;69.37
70300;HTU21D;57704;51.112;5.878;2023-02-26T05:47:43;1.07;69.37
70300;HTU21D;57704;51.112;5.878;2023-02-26T05:50:10;1.07;69.46
70300;HTU21D;57704;51.112;5.878;2023-02-26T05:52:36;1.08;69.38
70300;HTU21D;57704;51.112;5.878;2023-02-26T05:55:03;1.05;69.39
70300;HTU21D;57704;51.112;5.878;2023-02-26T05:57:29;1.05;69.38
70300;HTU21D;57704;51.112;5.878;2023-02-26T05:59:55;1.04;69.31
70300;HTU21D;57704;51.112;5.878;2023-02-26T06:02:21;1.04;69.30
70300;HTU21D;57704;51.112;5.878;2023-02-26T06:04:47;1.01;69.33
70300;HTU21D;57704;51.112;5.878;2023-02-26T06:07:13;0.98;69.29
70300;HTU21D;57704;51.112;5.878;2023-02-26T06:09:39;0.96;69.30
70300;HTU21D;57704;51.112;5.878;2023-02-26T06:12:05;0.95;69.38
70300;HTU21D;57704;51.112;5.878;2023-02-26T06:14:32;0.93;69.42
70300;HTU21D;57704;51.112;5.878;2023-02-26T06:16:59;0.93;69.42
70300;HTU21D;57704;51.112;5.878;2023-02-26T06:19:24;0.94;69.33
70300;HTU21D;57704;51.112;5.878;2023-02-26T06:21:50;0.96;69.24
70300;HTU21D;57704;51.112;5.878;2023-02-26T06:24:16;0.94;69.26
70300;HTU21D;57704;51.112;5.878;2023-02-26T06:26:42;0.98;69.21
70300;HTU21D;57704;51.112;5.878;2023-02-26T06:29:09;0.94;69.15
70300;HTU21D;57704;51.112;5.878;2023-02-26T06:31:35;0.94;69.30
70300;HTU21D;57704;51.112;5.878;2023-02-26T06:34:01;0.94;69.24
70300;HTU21D;57704;51.112;5.878;2023-02-26T06:36:27;0.90;69.23
70300;HTU21D;57704;51.112;5.878;2023-02-26T06:38:53;0.90;69.23
70300;HTU21D;57704;51.112;5.878;2023-02-26T06:41:19;0.89;69.33
70300;HTU21D;57704;51.112;5.878;2023-02-26T06:43:45;0.92;69.24
70300;HTU21D;57704;51.112;5.878;2023-02-26T06:46:11;0.93;69.23
70300;HTU21D;57704;51.112;5.878;2023-02-26T06:48:37;0.98;69.23
70300;HTU21D;57704;51.112;5.878;2023-02-26T06:51:04;1.01;68.98
70300;HTU21D;57704;51.112;5.878;2023-02-26T06:53:30;1.01;69.04
70300;HTU21D;57704;51.112;5.878;2023-02-26T06:55:56;1.10;68.89
70300;HTU21D;57704;51.112;5.878;2023-02-26T06:58:23;1.05;68.89
70300;HTU21D;57704;51.112;5.878;2023-02-26T07:00:49;1.11;68.90
70300;HTU21D;57704;51.112;5.878;2023-02-26T07:03:17;1.13;68.85
70300;HTU21D;57704;51.112;5.878;2023-02-26T07:05:45;1.21;69.04
70300;HTU21D;57704;51.112;5.878;2023-02-26T07:08:12;1.63;71.96
70300;HTU21D;57704;51.112;5.878;2023-02-26T07:10:39;2.66;72.54
70300;HTU21D;57704;51.112;5.878;2023-02-26T07:13:05;3.70;69.65
70300;HTU21D;57704;51.112;5.878;2023-02-26T07:15:32;4.66;65.42
70300;HTU21D;57704;51.112;5.878;2023-02-26T07:17:58;5.48;63.48
70300;HTU21D;57704;51.112;5.878;2023-02-26T07:20:26;6.24;60.85
70300;HTU21D;57704;51.112;5.878;2023-02-26T07:22:52;7.00;59.25
70300;HTU21D;57704;51.112;5.878;2023-02-26T07:25:18;7.89;57.39
70300;HTU21D;57704;51.112;5.878;2023-02-26T07:27:44;8.71;54.74
70300;HTU21D;57704;51.112;5.878;2023-02-26T07:30:10;9.18;51.66
70300;HTU21D;57704;51.112;5.878;2023-02-26T07:32:36;9.46;51.23
70300;HTU21D;57704;51.112;5.878;2023-02-26T07:35:02;9.95;49.36
70300;HTU21D;57704;51.112;5.878;2023-02-26T07:37:29;10.07;48.56
70300;HTU21D;57704;51.112;5.878;2023-02-26T07:39:54;10.40;46.23
70300;HTU21D;57704;51.112;5.878;2023-02-26T07:42:20;10.57;47.49
70300;HTU21D;57704;51.112;5.878;2023-02-26T07:44:46;11.00;47.19
70300;HTU21D;57704;51.112;5.878;2023-02-26T07:47:12;11.70;46.38
70300;HTU21D;57704;51.112;5.878;2023-02-26T07:49:38;12.53;44.13
70300;HTU21D;57704;51.112;5.878;2023-02-26T07:52:05;12.91;42.17
70300;HTU21D;57704;51.112;5.878;2023-02-26T07:54:33;12.72;40.60
70300;HTU21D;57704;51.112;5.878;2023-02-26T07:56:59;12.79;41.39
70300;HTU21D;57704;51.112;5.878;2023-02-26T07:59:26;13.19;41.13
70300;HTU21D;57704;51.112;5.878;2023-02-26T08:01:51;13.70;40.74
70300;HTU21D;57704;51.112;5.878;2023-02-26T08:04:17;14.41;39.95
70300;HTU21D;57704;51.112;5.878;2023-02-26T08:06:43;15.13;36.94
70300;HTU21D;57704;51.112;5.878;2023-02-26T08:09:10;15.03;35.73
70300;HTU21D;57704;51.112;5.878;2023-02-26T08:11:36;14.92;37.28
70300;HTU21D;57704;51.112;5.878;2023-02-26T08:14:06;15.19;36.41
70300;HTU21D;57704;51.112;5.878;2023-02-26T08:16:32;15.66;36.04
70300;HTU21D;57704;51.112;5.878;2023-02-26T08:18:58;16.02;34.81
70300;HTU21D;57704;51.112;5.878;2023-02-26T08:21:24;16.33;35.08
70300;HTU21D;57704;51.112;5.878;2023-02-26T08:23:50;16.95;32.90
70300;HTU21D;57704;51.112;5.878;2023-02-26T08:26:17;17.15;32.89
70300;HTU21D;57704;51.112;5.878;2023-02-26T08:28:43;17.06;30.35
70300;HTU21D;57704;51.112;5.878;2023-02-26T08:31:09;16.39;32.68
70300;HTU21D;57704;51.112;5.878;2023-02-26T08:33:35;16.49;32.29
70300;HTU21D;57704;51.112;5.878;2023-02-26T08:36:01;16.45;32.48
70300;HTU21D;57704;51.112;5.878;2023-02-26T08:38:28;16.42;32.19
70300;HTU21D;57704;51.112;5.878;2023-02-26T08:40:54;16.43;32.21
70300;HTU21D;57704;51.112;5.878;2023-02-26T08:43:21;16.49;32.10
70300;HTU21D;57704;51.112;5.878;2023-02-26T08:45:47;16.45;31.36
70300;HTU21D;57704;51.112;5.878;2023-02-26T08:48:14;16.41;31.91
70300;HTU21D;57704;51.112;5.878;2023-02-26T08:50:40;16.62;32.22
70300;HTU21D;57704;51.112;5.878;2023-02-26T08:53:06;16.81;30.90
70300;HTU21D;57704;51.112;5.878;2023-02-26T08:55:32;16.56;31.05
70300;HTU21D;57704;51.112;5.878;2023-02-26T08:57:58;16.31;31.70
70300;HTU21D;57704;51.112;5.878;2023-02-26T09:00:23;16.56;31.45
70300;HTU21D;57704;51.112;5.878;2023-02-26T09:02:49;16.57;31.28
70300;HTU21D;57704;51.112;5.878;2023-02-26T09:05:16;16.55;31.30
70300;HTU21D;57704;51.112;5.878;2023-02-26T09:07:43;16.89;31.21
70300;HTU21D;57704;51.112;5.878;2023-02-26T09:10:10;17.22;30.75
70300;HTU21D;57704;51.112;5.878;2023-02-26T09:12:36;17.25;29.48
70300;HTU21D;57704;51.112;5.878;2023-02-26T09:15:07;16.96;30.47
70300;HTU21D;57704;51.112;5.878;2023-02-26T09:17:34;17.04;30.29
70300;HTU21D;57704;51.112;5.878;2023-02-26T09:20:00;17.10;30.45
70300;HTU21D;57704;51.112;5.878;2023-02-26T09:22:26;16.99;30.23
70300;HTU21D;57704;51.112;5.878;2023-02-26T09:24:51;16.94;30.54
70300;HTU21D;57704;51.112;5.878;2023-02-26T09:27:17;16.95;30.29
70300;HTU21D;57704;51.112;5.878;2023-02-26T09:29:43;16.84;30.31
70300;HTU21D;57704;51.112;5.878;2023-02-26T09:32:09;16.60;29.30
70300;HTU21D;57704;51.112;5.878;2023-02-26T09:34:35;15.81;31.11
70300;HTU21D;57704;51.112;5.878;2023-02-26T09:37:03;15.76;30.85
70300;HTU21D;57704;51.112;5.878;2023-02-26T09:39:29;15.42;30.51
70300;HTU21D;57704;51.112;5.878;2023-02-26T09:41:59;15.14;30.76
70300;HTU21D;57704;51.112;5.878;2023-02-26T09:44:29;15.04;31.16
70300;HTU21D;57704;51.112;5.878;2023-02-26T09:47:34;14.88;31.49
70300;HTU21D;57704;51.112;5.878;2023-02-26T09:50:17;14.97;31.06
70300;HTU21D;57704;51.112;5.878;2023-02-26T09:52:54;14.99;31.03
70300;HTU21D;57704;51.112;5.878;2023-02-26T09:55:36;14.89;30.43
70300;HTU21D;57704;51.112;5.878;2023-02-26T10:12:20;12.95;31.17
70300;HTU21D;57704;51.112;5.878;2023-02-26T10:15:14;12.17;31.98
70300;HTU21D;57704;51.112;5.878;2023-02-26T10:18:07;11.45;34.41
70300;HTU21D;57704;51.112;5.878;2023-02-26T10:21:16;11.37;33.81
70300;HTU21D;57704;51.112;5.878;2023-02-26T10:23:56;10.86;34.10
70300;HTU21D;57704;51.112;5.878;2023-02-26T10:26:35;10.27;35.26
70300;HTU21D;57704;51.112;5.878;2023-02-26T10:37:20;10.73;36.02
70300;HTU21D;57704;51.112;5.878;2023-02-26T10:42:49;10.73;35.08
70300;HTU21D;57704;51.112;5.878;2023-02-26T10:50:56;9.12;37.56
70300;HTU21D;57704;51.112;5.878;2023-02-26T10:53:23;9.17;37.71
70300;HTU21D;57704;51.112;5.878;2023-02-26T10:55:58;9.04;37.14
70300;HTU21D;57704;51.112;5.878;2023-02-26T10:58:25;8.76;37.21
70300;HTU21D;57704;51.112;5.878;2023-02-26T11:00:53;8.23;37.88
70300;HTU21D;57704;51.112;5.878;2023-02-26T11:03:33;8.13;38.72
70300;HTU21D;57704;51.112;5.878;2023-02-26T11:06:02;8.05;38.47
70300;HTU21D;57704;51.112;5.878;2023-02-26T11:08:38;8.01;37.86
70300;HTU21D;57704;51.112;5.878;2023-02-26T11:11:06;7.56;38.58
70300;HTU21D;57704;51.112;5.878;2023-02-26T11:13:34;7.26;39.07
70300;HTU21D;57704;51.112;5.878;2023-02-26T11:16:05;7.02;39.57
70300;HTU21D;57704;51.112;5.878;2023-02-26T11:21:04;7.02;40.30
70300;HTU21D;57704;51.112;5.878;2023-02-26T11:23:32;7.04;40.65
70300;HTU21D;57704;51.112;5.878;2023-02-26T11:26:15;7.28;40.96
70300;HTU21D;57704;51.112;5.878;2023-02-26T11:28:47;7.69;40.46
70300;HTU21D;57704;51.112;5.878;2023-02-26T11:31:19;7.91;40.03
70300;HTU21D;57704;51.112;5.878;2023-02-26T11:33:57;8.09;39.57
70300;HTU21D;57704;51.112;5.878;2023-02-26T11:36:28;8.41;38.82
70300;HTU21D;57704;51.112;5.878;2023-02-26T11:39:14;8.53;38.98
70300;HTU21D;57704;51.112;5.878;2023-02-26T11:41:43;9.16;38.62
70300;HTU21D;57704;51.112;5.878;2023-02-26T11:46:49;10.01;37.17
70300;HTU21D;57704;51.112;5.878;2023-02-26T11:49:20;10.37;36.84
70300;HTU21D;57704;51.112;5.878;2023-02-26T11:54:37;10.48;35.24
70300;HTU21D;57704;51.112;5.878;2023-02-26T11:57:17;10.06;35.21
70300;HTU21D;57704;51.112;5.878;2023-02-26T11:59:47;9.51;36.16
70300;HTU21D;57704;51.112;5.878;2023-02-26T12:02:17;9.55;36.73
70300;HTU21D;57704;51.112;5.878;2023-02-26T12:04:45;9.95;36.20
70300;HTU21D;57704;51.112;5.878;2023-02-26T12:07:14;9.75;36.09
70300;HTU21D;57704;51.112;5.878;2023-02-26T12:09:41;9.33;36.44
70300;HTU21D;57704;51.112;5.878;2023-02-26T12:12:25;9.03;36.88
70300;HTU21D;57704;51.112;5.878;2023-02-26T12:20:14;8.88;37.98
70300;HTU21D;57704;51.112;5.878;2023-02-26T12:23:11;9.90;36.57
70300;HTU21D;57704;51.112;5.878;2023-02-26T12:25:58;10.95;35.63
70300;HTU21D;57704;51.112;5.878;2023-02-26T12:28:42;11.69;33.73
70300;HTU21D;57704;51.112;5.878;2023-02-26T12:31:39;12.34;32.83
70300;HTU21D;57704;51.112;5.878;2023-02-26T12:51:20;12.53;31.67
70300;HTU21D;57704;51.112;5.878;2023-02-26T12:54:16;13.09;30.16
70300;HTU21D;57704;51.112;5.878;2023-02-26T12:56:57;13.23;29.64
70300;HTU21D;57704;51.112;5.878;2023-02-26T13:07:56;14.13;28.95
70300;HTU21D;57704;51.112;5.878;2023-02-26T13:10:36;14.22;29.48
70300;HTU21D;57704;51.112;5.878;2023-02-26T13:16:15;13.29;30.31
70300;HTU21D;57704;51.112;5.878;2023-02-26T13:19:07;12.61;30.38
70300;HTU21D;57704;51.112;5.878;2023-02-26T13:21:43;11.92;31.57
70300;HTU21D;57704;51.112;5.878;2023-02-26T13:24:37;11.63;31.35
70300;HTU21D;57704;51.112;5.878;2023-02-26T13:27:07;11.22;32.76
70300;HTU21D;57704;51.112;5.878;2023-02-26T13:29:41;11.12;31.55
70300;HTU21D;57704;51.112;5.878;2023-02-26T13:32:18;10.81;32.60
70300;HTU21D;57704;51.112;5.878;2023-02-26T13:35:05;10.89;32.32
70300;HTU21D;57704;51.112;5.878;2023-02-26T13:37:40;11.11;30.99
70300;HTU21D;57704;51.112;5.878;2023-02-26T13:43:40;11.25;30.67
70300;HTU21D;57704;51.112;5.878;2023-02-26T13:52:29;11.34;30.65
70300;HTU21D;57704;51.112;5.878;2023-02-26T13:54:55;11.43;31.10
70300;HTU21D;57704;51.112;5.878;2023-02-26T13:57:50;11.20;31.37
70300;HTU21D;57704;51.112;5.878;2023-02-26T14:02:57;10.54;31.57
70300;HTU21D;57704;51.112;5.878;2023-02-26T14:13:39;10.22;32.73
70300;HTU21D;57704;51.112;5.878;2023-02-26T14:16:10;10.03;33.42
70300;HTU21D;57704;51.112;5.878;2023-02-26T14:18:48;10.19;33.64
70300;HTU21D;57704;51.112;5.878;2023-02-26T14:24:21;10.36;33.82
70300;HTU21D;57704;51.112;5.878;2023-02-26T14:26:50;10.37;33.86
70300;HTU21D;57704;51.112;5.878;2023-02-26T14:29:21;10.34;33.90
70300;HTU21D;57704;51.112;5.878;2023-02-26T14:32:04;10.18;32.92
70300;HTU21D;57704;51.112;5.878;2023-02-26T14:34:35;9.95;32.99
70300;HTU21D;57704;51.112;5.878;2023-02-26T14:37:05;9.67;33.76
70300;HTU21D;57704;51.112;5.878;2023-02-26T14:39:47;9.56;33.54
70300;HTU21D;57704;51.112;5.878;2023-02-26T14:42:22;9.36;33.51
70300;HTU21D;57704;51.112;5.878;2023-02-26T14:45:36;9.32;34.08
70300;HTU21D;57704;51.112;5.878;2023-02-26T14:48:00;9.27;34.17
70300;HTU21D;57704;51.112;5.878;2023-02-26T15:02:25;9.12;34.45
70300;HTU21D;57704;51.112;5.878;2023-02-26T15:05:08;9.17;33.94
70300;HTU21D;57704;51.112;5.878;2023-02-26T15:08:01;9.18;33.96
70300;HTU21D;57704;51.112;5.878;2023-02-26T15:24:23;8.83;35.44
70300;HTU21D;57704;51.112;5.878;2023-02-26T15:26:52;8.81;35.50
70300;HTU21D;57704;51.112;5.878;2023-02-26T15:29:27;8.85;35.45
70300;HTU21D;57704;51.112;5.878;2023-02-26T15:31:57;8.70;35.55
70300;HTU21D;57704;51.112;5.878;2023-02-26T15:34:25;8.63;35.90
70300;HTU21D;57704;51.112;5.878;2023-02-26T15:36:52;8.57;36.41
70300;HTU21D;57704;51.112;5.878;2023-02-26T15:39:23;8.67;35.71
70300;HTU21D;57704;51.112;5.878;2023-02-26T15:41:52;8.61;35.73
70300;HTU21D;57704;51.112;5.878;2023-02-26T15:44:26;8.53;35.91
70300;HTU21D;57704;51.112;5.878;2023-02-26T15:46:57;8.55;36.27
70300;HTU21D;57704;51.112;5.878;2023-02-26T15:51:52;8.41;36.46
70300;HTU21D;57704;51.112;5.878;2023-02-26T15:54:22;8.43;36.26
70300;HTU21D;57704;51.112;5.878;2023-02-26T15:56:48;8.35;36.30
70300;HTU21D;57704;51.112;5.878;2023-02-26T15:59:22;8.23;36.55
70300;HTU21D;57704;51.112;5.878;2023-02-26T16:01:49;8.15;36.82
70300;HTU21D;57704;51.112;5.878;2023-02-26T16:04:18;8.15;37.01
70300;HTU21D;57704;51.112;5.878;2023-02-26T16:06:47;8.12;37.02
70300;HTU21D;57704;51.112;5.878;2023-02-26T16:09:18;8.07;36.79
70300;HTU21D;57704;51.112;5.878;2023-02-26T16:11:46;7.85;36.80
70300;HTU21D;57704;51.112;5.878;2023-02-26T16:14:21;7.60;37.35
70300;HTU21D;57704;51.112;5.878;2023-02-26T16:16:52;7.53;37.46
70300;HTU21D;57704;51.112;5.878;2023-02-26T16:19:39;7.34;37.68
70300;HTU21D;57704;51.112;5.878;2023-02-26T16:22:20;7.22;38.12
70300;HTU21D;57704;51.112;5.878;2023-02-26T16:24:59;7.18;38.05
70300;HTU21D;57704;51.112;5.878;2023-02-26T16:27:28;7.00;38.42
70300;HTU21D;57704;51.112;5.878;2023-02-26T16:29:57;6.98;38.93
70300;HTU21D;57704;51.112;5.878;2023-02-26T16:32:30;6.99;39.23
70300;HTU21D;57704;51.112;5.878;2023-02-26T16:34:59;6.97;39.48
70300;HTU21D;57704;51.112;5.878;2023-02-26T16:39:57;6.87;39.91
70300;HTU21D;57704;51.112;5.878;2023-02-26T16:42:59;6.84;40.20
70300;HTU21D;57704;51.112;5.878;2023-02-26T16:50:35;6.66;40.78
70300;HTU21D;57704;51.112;5.878;2023-02-26T16:53:47;6.67;41.04
70300;HTU21D;57704;51.112;5.878;2023-02-26T16:56:21;6.63;41.10
70300;HTU21D;57704;51.112;5.878;2023-02-26T16:59:03;6.55;41.19
70300;HTU21D;57704;51.112;5.878;2023-02-26T17:01:36;6.48;41.58
70300;HTU21D;57704;51.112;5.878;2023-02-26T17:04:04;6.43;41.72
70300;HTU21D;57704;51.112;5.878;2023-02-26T17:06:31;6.38;42.00
70300;HTU21D;57704;51.112;5.878;2023-02-26T17:08:59;6.33;42.09
70300;HTU21D;57704;51.112;5.878;2023-02-26T17:11:27;6.28;42.49
70300;HTU21D;57704;51.112;5.878;2023-02-26T17:14:36;6.26;42.65
70300;HTU21D;57704;51.112;5.878;2023-02-26T17:17:05;6.23;42.74
70300;HTU21D;57704;51.112;5.878;2023-02-26T17:19:30;6.17;42.93
70300;HTU21D;57704;51.112;5.878;2023-02-26T17:21:57;6.12;43.19
70300;HTU21D;57704;51.112;5.878;2023-02-26T17:24:30;6.11;43.35
70300;HTU21D;57704;51.112;5.878;2023-02-26T17:26:58;6.02;43.47
70300;HTU21D;57704;51.112;5.878;2023-02-26T17:29:44;5.98;43.50
70300;HTU21D;57704;51.112;5.878;2023-02-26T17:32:20;5.89;43.64
70300;HTU21D;57704;51.112;5.878;2023-02-26T17:34:48;5.80;43.90
70300;HTU21D;57704;51.112;5.878;2023-02-26T17:37:15;5.80;43.99
70300;HTU21D;57704;51.112;5.878;2023-02-26T17:39:41;5.76;44.01
70300;HTU21D;57704;51.112;5.878;2023-02-26T17:42:16;5.72;44.23
70300;HTU21D;57704;51.112;5.878;2023-02-26T17:44:44;5.75;44.45
70300;HTU21D;57704;51.112;5.878;2023-02-26T17:47:24;5.75;44.52
70300;HTU21D;57704;51.112;5.878;2023-02-26T17:49:51;5.70;44.58
70300;HTU21D;57704;51.112;5.878;2023-02-26T17:52:18;5.67;44.94
70300;HTU21D;57704;51.112;5.878;2023-02-26T17:54:44;5.62;45.15
70300;HTU21D;57704;51.112;5.878;2023-02-26T17:57:17;5.62;45.32
70300;HTU21D;57704;51.112;5.878;2023-02-26T17:59:43;5.55;45.51
70300;HTU21D;57704;51.112;5.878;2023-02-26T18:02:16;5.49;45.86
70300;HTU21D;57704;51.112;5.878;2023-02-26T18:04:42;5.49;46.07
70300;HTU21D;57704;51.112;5.878;2023-02-26T18:07:14;5.42;46.25
70300;HTU21D;57704;51.112;5.878;2023-02-26T18:09:45;5.38;46.57
70300;HTU21D;57704;51.112;5.878;2023-02-26T18:12:16;5.37;46.79
70300;HTU21D;57704;51.112;5.878;2023-02-26T18:14:42;5.30;46.93
70300;HTU21D;57704;51.112;5.878;2023-02-26T18:17:15;5.28;47.08
70300;HTU21D;57704;51.112;5.878;2023-02-26T18:19:42;5.22;47.25
70300;HTU21D;57704;51.112;5.878;2023-02-26T18:22:13;5.18;47.34
70300;HTU21D;57704;51.112;5.878;2023-02-26T18:24:40;5.16;47.53
70300;HTU21D;57704;51.112;5.878;2023-02-26T18:27:15;5.11;47.63
70300;HTU21D;57704;51.112;5.878;2023-02-26T18:29:41;5.07;47.75
70300;HTU21D;57704;51.112;5.878;2023-02-26T18:32:14;5.07;47.86
70300;HTU21D;57704;51.112;5.878;2023-02-26T18:34:40;5.06;47.98
70300;HTU21D;57704;51.112;5.878;2023-02-26T18:37:11;5.08;48.08
70300;HTU21D;57704;51.112;5.878;2023-02-26T18:39:38;5.06;48.12
70300;HTU21D;57704;51.112;5.878;2023-02-26T18:42:04;5.06;48.18
70300;HTU21D;57704;51.112;5.878;2023-02-26T18:44:30;5.02;48.32